createdAt,value
2023-07-28T00:01:35.725Z,1.67
2023-07-28T00:07:39.167Z,0.60
2023-07-28T00:13:43.042Z,0.63
2023-07-28T00:19:47.874Z,1.77
2023-07-28T00:25:51.346Z,1.23
2023-07-28T00:31:55.131Z,1.05
2023-07-28T00:37:59.917Z,1.23
2023-07-28T00:44:03.584Z,1.80
2023-07-28T00:50:07.565Z,1.73
2023-07-28T00:56:13.559Z,1.67
2023-07-28T01:02:17.082Z,1.35
2023-07-28T01:08:24.551Z,1.25
2023-07-28T01:14:29.557Z,0.95
2023-07-28T01:20:34.670Z,1.20
2023-07-28T01:26:39.580Z,1.20
2023-07-28T01:32:43.143Z,1.38
2023-07-28T01:38:46.730Z,1.15
2023-07-28T01:44:51.521Z,1.10
2023-07-28T01:50:55.295Z,1.83
2023-07-28T01:56:58.852Z,1.75
2023-07-28T02:03:04.700Z,1.20
2023-07-28T02:09:08.189Z,1.10
2023-07-28T02:15:11.862Z,1.10
2023-07-28T02:21:16.910Z,1.30
2023-07-28T02:27:20.441Z,1.45
2023-07-28T02:33:23.856Z,1.40
2023-07-28T02:39:29.075Z,1.45
2023-07-28T02:45:32.490Z,1.83
2023-07-28T02:51:36.190Z,1.35
2023-07-28T02:57:41.012Z,1.10
2023-07-28T03:03:44.469Z,1.33
2023-07-28T03:09:48.272Z,1.25
2023-07-28T03:15:53.121Z,1.10
2023-07-28T03:21:56.587Z,1.15
2023-07-28T03:28:00.097Z,0.98
2023-07-28T03:34:04.913Z,1.42
2023-07-28T03:40:09.052Z,1.30
2023-07-28T03:46:12.664Z,1.10
2023-07-28T03:52:17.612Z,1.00
2023-07-28T03:58:21.055Z,1.17
2023-07-28T04:04:24.541Z,1.08
2023-07-28T04:10:29.321Z,1.30
2023-07-28T04:16:33.246Z,1.17
2023-07-28T04:22:36.958Z,1.45
2023-07-28T04:28:41.837Z,1.00
2023-07-28T04:34:45.373Z,1.10
2023-07-28T04:40:48.846Z,1.35
2023-07-28T04:46:53.640Z,1.10
2023-07-28T04:52:57.113Z,1.23
2023-07-28T04:59:00.911Z,1.15
2023-07-28T05:05:05.923Z,2.30
2023-07-28T05:11:09.679Z,1.33
2023-07-28T05:17:13.138Z,1.20
2023-07-28T05:23:18.011Z,2.00
2023-07-28T05:29:21.465Z,1.35
2023-07-28T05:35:24.887Z,1.38
2023-07-28T05:41:29.724Z,2.20
2023-07-28T05:47:33.467Z,1.20
2023-07-28T05:53:36.991Z,2.20
2023-07-28T05:59:41.796Z,1.20
2023-07-28T06:05:45.408Z,1.23
2023-07-28T06:11:48.853Z,2.05
2023-07-28T06:17:53.683Z,2.13
2023-07-28T06:23:57.858Z,1.60
2023-07-28T06:30:01.909Z,1.60
2023-07-28T06:36:07.109Z,1.58
2023-07-28T06:42:10.659Z,1.40
2023-07-28T06:48:14.088Z,1.50
2023-07-28T06:54:19.279Z,2.63
2023-07-28T07:00:22.810Z,1.90
2023-07-28T07:06:26.231Z,1.42
2023-07-28T07:12:31.722Z,2.20
2023-07-28T07:18:35.209Z,2.42
2023-07-28T07:24:38.707Z,2.03
2023-07-28T07:30:43.521Z,1.92
2023-07-28T07:36:48.386Z,1.77
2023-07-28T07:42:53.150Z,1.77
2023-07-28T07:48:58.043Z,2.33
2023-07-28T07:55:01.533Z,1.58
2023-07-28T08:01:05.657Z,1.60
2023-07-28T08:07:10.623Z,1.85
2023-07-28T08:13:14.210Z,1.83
2023-07-28T08:19:17.838Z,1.70
2023-07-28T08:25:24.123Z,1.70
2023-07-28T08:31:27.915Z,1.77
2023-07-28T08:37:31.515Z,1.40
2023-07-28T08:43:36.651Z,1.40
2023-07-28T08:49:40.372Z,1.27
2023-07-28T08:55:43.827Z,1.40
2023-07-28T09:01:48.773Z,1.27
2023-07-28T09:07:53.171Z,1.50
2023-07-28T09:13:58.115Z,1.23
2023-07-28T09:20:05.130Z,1.52
2023-07-28T09:26:10.844Z,0.90
2023-07-28T09:32:14.425Z,0.85
2023-07-28T09:38:19.776Z,1.00
2023-07-28T09:44:23.246Z,0.63
2023-07-28T09:50:27.299Z,0.70
2023-07-28T09:56:32.284Z,0.65
2023-07-28T10:02:36.514Z,0.70
2023-07-28T10:08:40.814Z,0.82
2023-07-28T10:14:45.752Z,0.70
2023-07-28T10:20:50.636Z,0.80
2023-07-28T10:27:01.134Z,0.70
2023-07-28T10:33:06.342Z,0.60
2023-07-28T10:39:16.259Z,0.70
2023-07-28T10:45:20.004Z,0.70
2023-07-28T10:51:26.977Z,0.60
2023-07-28T10:57:30.496Z,0.60
2023-07-28T11:03:37.553Z,0.60
2023-07-28T11:09:42.446Z,0.70
2023-07-28T11:15:46.256Z,0.90
2023-07-28T11:21:52.549Z,0.85
2023-07-28T11:27:57.852Z,0.85
2023-07-28T11:34:02.195Z,0.73
2023-07-28T11:40:07.978Z,0.55
2023-07-28T11:46:27.390Z,0.80
2023-07-28T11:52:34.085Z,0.75
2023-07-28T11:58:37.744Z,0.65
2023-07-28T12:29:30.712Z,0.65
2023-07-28T12:41:43.826Z,0.52
2023-07-28T12:47:58.865Z,0.70
2023-07-28T12:54:02.988Z,0.45
2023-07-28T13:06:21.928Z,0.70
2023-07-28T13:18:33.910Z,0.60
2023-07-28T13:24:39.577Z,0.63
2023-07-28T13:30:43.131Z,0.43
2023-07-28T13:36:46.556Z,0.68
2023-07-28T13:42:51.345Z,0.65
2023-07-28T13:48:54.915Z,0.68
2023-07-28T14:01:06.117Z,0.85
2023-07-28T14:07:09.891Z,0.68
2023-07-28T14:13:13.425Z,0.70
2023-07-28T14:19:19.051Z,0.63
2023-07-28T14:25:22.490Z,0.57
2023-07-28T14:31:26.057Z,0.65
2023-07-28T14:37:30.981Z,0.50
2023-07-28T14:43:34.816Z,0.60
2023-07-28T14:49:38.285Z,0.75
2023-07-28T14:55:43.094Z,0.60
2023-07-28T15:01:48.250Z,0.70
2023-07-28T15:07:51.716Z,0.88
2023-07-28T15:13:56.898Z,0.47
2023-07-28T15:20:00.323Z,0.60
2023-07-28T15:26:03.866Z,0.60
2023-07-28T15:32:08.923Z,0.77
2023-07-28T15:38:12.434Z,0.70
2023-07-28T15:44:15.876Z,0.80
2023-07-28T15:50:20.781Z,0.73
2023-07-28T15:56:24.259Z,0.60
2023-07-28T16:02:28.013Z,0.70
2023-07-28T16:08:32.893Z,0.63
2023-07-28T16:14:36.331Z,0.57
2023-07-28T16:20:39.882Z,0.50
2023-07-28T16:26:44.832Z,2.05
2023-07-28T16:32:48.558Z,0.70
2023-07-28T16:38:51.995Z,0.60
2023-07-28T16:44:56.828Z,0.70
2023-07-28T16:51:00.282Z,0.52
2023-07-28T16:57:03.692Z,0.82
2023-07-28T17:03:09.022Z,0.55
2023-07-28T17:09:12.580Z,0.60
2023-07-28T17:15:23.380Z,0.52
2023-07-28T17:21:35.417Z,0.55
2023-07-28T17:27:39.252Z,0.50
2023-07-28T17:33:43.046Z,0.60
2023-07-28T17:39:50.413Z,0.60
2023-07-28T17:45:54.466Z,0.60
2023-07-28T17:51:58.546Z,0.70
2023-07-28T17:58:03.411Z,0.52
2023-07-28T18:04:07.192Z,0.43
2023-07-28T18:10:11.370Z,0.50
2023-07-28T18:16:17.980Z,0.77
2023-07-28T18:22:21.452Z,0.60
2023-07-28T18:28:24.991Z,0.65
2023-07-28T18:34:30.601Z,0.50
2023-07-28T18:40:34.087Z,0.70
2023-07-28T18:46:37.709Z,0.40
2023-07-28T18:52:43.682Z,0.60
2023-07-28T18:58:47.206Z,0.50
2023-07-28T19:04:50.680Z,0.50
2023-07-28T19:10:55.649Z,0.47
2023-07-28T19:16:59.172Z,0.50
2023-07-28T19:23:03.726Z,0.50
2023-07-28T19:29:08.811Z,0.60
2023-07-28T19:35:12.299Z,0.47
2023-07-28T19:41:18.198Z,0.40
2023-07-28T19:47:23.196Z,0.40
2023-07-28T19:53:26.896Z,0.43
2023-07-28T19:59:30.569Z,0.50
2023-07-28T20:05:35.601Z,0.45
2023-07-28T20:11:39.046Z,0.63
2023-07-28T20:17:43.970Z,0.60
2023-07-28T20:23:50.022Z,0.65
2023-07-28T20:29:53.548Z,0.52
2023-07-28T20:35:57.032Z,0.50
2023-07-28T20:42:01.948Z,0.50
2023-07-28T20:48:05.680Z,0.50
2023-07-28T20:54:09.155Z,0.47
2023-07-28T21:00:14.416Z,0.57
2023-07-28T21:06:17.933Z,0.60
2023-07-28T21:12:21.430Z,0.55
2023-07-28T21:18:26.294Z,0.60
2023-07-28T21:24:29.755Z,0.73
2023-07-28T21:30:34.334Z,0.70
2023-07-28T21:36:39.496Z,0.70
2023-07-28T21:42:42.936Z,1.08
2023-07-28T21:48:46.880Z,0.98
2023-07-28T21:54:51.970Z,0.98
2023-07-28T22:00:55.400Z,1.30
2023-07-28T22:06:58.904Z,0.93
2023-07-28T22:13:03.709Z,0.75
2023-07-28T22:19:07.134Z,1.55
2023-07-28T22:25:10.960Z,1.40
2023-07-28T22:31:16.173Z,1.30
2023-07-28T22:37:19.874Z,1.60
2023-07-28T22:43:23.551Z,1.40
2023-07-28T22:49:28.379Z,1.42
2023-07-28T22:55:31.815Z,1.75
2023-07-28T23:01:35.435Z,1.27
2023-07-28T23:07:40.702Z,1.42
2023-07-28T23:13:44.447Z,1.80
2023-07-28T23:19:47.855Z,1.13
2023-07-28T23:25:52.660Z,1.20
2023-07-28T23:31:56.103Z,1.52
2023-07-28T23:37:59.554Z,1.27
2023-07-28T23:44:04.494Z,1.58
2023-07-28T23:50:09.789Z,1.38
2023-07-28T23:56:14.615Z,1.20
